sensor_id;sensor_type;location;lat;lon;timestamp;temperature;humidity
7196;DHT22;3639;51.308;5.624;2023-02-01T00:01:54;5.40;99.90
7196;DHT22;3639;51.308;5.624;2023-02-01T00:04:20;5.30;99.90
7196;DHT22;3639;51.308;5.624;2023-02-01T00:06:46;5.30;99.90
7196;DHT22;3639;51.308;5.624;2023-02-01T00:09:12;5.20;99.90
7196;DHT22;3639;51.308;5.624;2023-02-01T00:11:37;5.10;99.90
7196;DHT22;3639;51.308;5.624;2023-02-01T00:14:03;5.10;99.90
7196;DHT22;3639;51.308;5.624;2023-02-01T00:16:30;5.10;99.90
7196;DHT22;3639;51.308;5.624;2023-02-01T00:19:02;5.00;99.90
7196;DHT22;3639;51.308;5.624;2023-02-01T00:21:29;5.00;99.90
7196;DHT22;3639;51.308;5.624;2023-02-01T00:23:56;5.00;99.90
7196;DHT22;3639;51.308;5.624;2023-02-01T00:26:39;5.00;99.90
7196;DHT22;3639;51.308;5.624;2023-02-01T00:29:16;5.00;99.90
7196;DHT22;3639;51.308;5.624;2023-02-01T00:31:43;5.00;99.90
7196;DHT22;3639;51.308;5.624;2023-02-01T00:34:13;4.90;99.90
7196;DHT22;3639;51.308;5.624;2023-02-01T00:36:40;4.90;99.90
7196;DHT22;3639;51.308;5.624;2023-02-01T00:39:05;4.80;99.90
7196;DHT22;3639;51.308;5.624;2023-02-01T00:41:31;4.90;99.90
7196;DHT22;3639;51.308;5.624;2023-02-01T00:43:57;4.90;99.90
7196;DHT22;3639;51.308;5.624;2023-02-01T00:46:23;4.80;99.90
7196;DHT22;3639;51.308;5.624;2023-02-01T00:48:48;4.80;99.90
7196;DHT22;3639;51.308;5.624;2023-02-01T00:51:16;4.90;99.90
7196;DHT22;3639;51.308;5.624;2023-02-01T00:53:42;4.80;99.90
7196;DHT22;3639;51.308;5.624;2023-02-01T00:56:09;4.80;99.90
7196;DHT22;3639;51.308;5.624;2023-02-01T00:58:36;4.80;99.90
7196;DHT22;3639;51.308;5.624;2023-02-01T01:01:05;4.80;99.90
7196;DHT22;3639;51.308;5.624;2023-02-01T01:03:33;4.80;99.90
7196;DHT22;3639;51.308;5.624;2023-02-01T01:06:01;4.80;99.90
7196;DHT22;3639;51.308;5.624;2023-02-01T01:08:27;4.80;99.90
7196;DHT22;3639;51.308;5.624;2023-02-01T01:10:53;4.80;99.90
7196;DHT22;3639;51.308;5.624;2023-02-01T01:13:19;4.70;99.90
7196;DHT22;3639;51.308;5.624;2023-02-01T01:15:45;4.70;99.90
7196;DHT22;3639;51.308;5.624;2023-02-01T01:18:10;4.70;99.90
7196;DHT22;3639;51.308;5.624;2023-02-01T01:20:38;4.80;99.90
7196;DHT22;3639;51.308;5.624;2023-02-01T01:23:05;4.80;99.90
7196;DHT22;3639;51.308;5.624;2023-02-01T01:25:31;4.70;99.90
7196;DHT22;3639;51.308;5.624;2023-02-01T01:27:56;4.70;99.90
7196;DHT22;3639;51.308;5.624;2023-02-01T01:30:22;4.70;99.90
7196;DHT22;3639;51.308;5.624;2023-02-01T01:32:48;4.70;99.90
7196;DHT22;3639;51.308;5.624;2023-02-01T01:35:13;4.60;99.90
7196;DHT22;3639;51.308;5.624;2023-02-01T01:37:39;4.60;99.90
7196;DHT22;3639;51.308;5.624;2023-02-01T01:40:06;4.70;99.90
7196;DHT22;3639;51.308;5.624;2023-02-01T01:42:40;4.70;99.90
7196;DHT22;3639;51.308;5.624;2023-02-01T01:45:29;4.70;99.90
7196;DHT22;3639;51.308;5.624;2023-02-01T01:47:58;4.70;99.90
7196;DHT22;3639;51.308;5.624;2023-02-01T01:50:48;4.70;99.90
7196;DHT22;3639;51.308;5.624;2023-02-01T01:53:21;4.70;99.90
7196;DHT22;3639;51.308;5.624;2023-02-01T01:55:48;4.80;99.90
7196;DHT22;3639;51.308;5.624;2023-02-01T01:58:18;4.80;99.90
7196;DHT22;3639;51.308;5.624;2023-02-01T02:00:45;4.80;99.90
7196;DHT22;3639;51.308;5.624;2023-02-01T02:03:13;4.70;99.90
7196;DHT22;3639;51.308;5.624;2023-02-01T02:05:40;4.70;99.90
7196;DHT22;3639;51.308;5.624;2023-02-01T02:08:05;4.60;99.90
7196;DHT22;3639;51.308;5.624;2023-02-01T02:10:31;4.50;99.90
7196;DHT22;3639;51.308;5.624;2023-02-01T02:21:23;4.70;99.90
7196;DHT22;3639;51.308;5.624;2023-02-01T02:24:08;4.70;99.90
7196;DHT22;3639;51.308;5.624;2023-02-01T02:27:07;4.70;99.90
7196;DHT22;3639;51.308;5.624;2023-02-01T02:40:32;4.70;99.90
7196;DHT22;3639;51.308;5.624;2023-02-01T02:43:04;4.70;99.90
7196;DHT22;3639;51.308;5.624;2023-02-01T02:46:04;4.60;99.90
7196;DHT22;3639;51.308;5.624;2023-02-01T02:49:00;4.70;99.90
7196;DHT22;3639;51.308;5.624;2023-02-01T02:51:38;4.70;99.90
7196;DHT22;3639;51.308;5.624;2023-02-01T02:54:29;4.80;99.90
7196;DHT22;3639;51.308;5.624;2023-02-01T03:00:08;4.90;99.90
7196;DHT22;3639;51.308;5.624;2023-02-01T03:02:53;4.90;99.90
7196;DHT22;3639;51.308;5.624;2023-02-01T03:05:42;4.80;99.90
7196;DHT22;3639;51.308;5.624;2023-02-01T03:13:59;4.90;99.90
7196;DHT22;3639;51.308;5.624;2023-02-01T03:16:28;4.90;99.90
7196;DHT22;3639;51.308;5.624;2023-02-01T03:19:03;4.90;99.90
7196;DHT22;3639;51.308;5.624;2023-02-01T03:21:41;4.90;99.90
7196;DHT22;3639;51.308;5.624;2023-02-01T03:24:21;4.90;99.90
7196;DHT22;3639;51.308;5.624;2023-02-01T03:26:54;4.90;99.90
7196;DHT22;3639;51.308;5.624;2023-02-01T03:29:37;5.00;99.90
7196;DHT22;3639;51.308;5.624;2023-02-01T03:32:03;5.00;99.90
7196;DHT22;3639;51.308;5.624;2023-02-01T03:34:29;4.90;99.90
7196;DHT22;3639;51.308;5.624;2023-02-01T03:37:05;4.90;99.90
7196;DHT22;3639;51.308;5.624;2023-02-01T03:40:10;4.90;99.90
7196;DHT22;3639;51.308;5.624;2023-02-01T03:42:39;4.90;99.90
7196;DHT22;3639;51.308;5.624;2023-02-01T03:47:43;4.90;99.90
7196;DHT22;3639;51.308;5.624;2023-02-01T03:50:18;4.90;99.90
7196;DHT22;3639;51.308;5.624;2023-02-01T03:52:48;4.90;99.90
7196;DHT22;3639;51.308;5.624;2023-02-01T03:55:17;4.90;99.90
7196;DHT22;3639;51.308;5.624;2023-02-01T03:57:51;5.00;99.90
7196;DHT22;3639;51.308;5.624;2023-02-01T04:00:23;5.00;99.90
7196;DHT22;3639;51.308;5.624;2023-02-01T04:02:50;5.10;99.90
7196;DHT22;3639;51.308;5.624;2023-02-01T04:05:16;5.00;99.90
7196;DHT22;3639;51.308;5.624;2023-02-01T04:07:42;5.00;99.90
7196;DHT22;3639;51.308;5.624;2023-02-01T04:10:08;5.00;99.90
7196;DHT22;3639;51.308;5.624;2023-02-01T04:12:34;4.90;99.90
7196;DHT22;3639;51.308;5.624;2023-02-01T04:15:00;4.90;99.90
7196;DHT22;3639;51.308;5.624;2023-02-01T04:17:26;4.90;99.90
7196;DHT22;3639;51.308;5.624;2023-02-01T04:19:51;4.90;99.90
7196;DHT22;3639;51.308;5.624;2023-02-01T04:22:17;4.90;99.90
7196;DHT22;3639;51.308;5.624;2023-02-01T04:24:43;4.80;99.90
7196;DHT22;3639;51.308;5.624;2023-02-01T04:27:08;4.80;99.90
7196;DHT22;3639;51.308;5.624;2023-02-01T04:29:34;4.80;99.90
7196;DHT22;3639;51.308;5.624;2023-02-01T04:32:00;4.80;99.90
7196;DHT22;3639;51.308;5.624;2023-02-01T04:34:26;4.80;99.90
7196;DHT22;3639;51.308;5.624;2023-02-01T04:36:52;4.80;99.90
7196;DHT22;3639;51.308;5.624;2023-02-01T04:39:17;4.80;99.90
7196;DHT22;3639;51.308;5.624;2023-02-01T04:41:43;4.80;99.90
7196;DHT22;3639;51.308;5.624;2023-02-01T04:44:18;4.80;99.90
7196;DHT22;3639;51.308;5.624;2023-02-01T04:46:45;4.80;99.90
7196;DHT22;3639;51.308;5.624;2023-02-01T04:49:12;4.70;99.90
7196;DHT22;3639;51.308;5.624;2023-02-01T04:51:39;4.80;99.90
7196;DHT22;3639;51.308;5.624;2023-02-01T04:54:05;4.70;99.90
7196;DHT22;3639;51.308;5.624;2023-02-01T04:56:30;4.70;99.90
7196;DHT22;3639;51.308;5.624;2023-02-01T04:58:56;4.70;99.90
7196;DHT22;3639;51.308;5.624;2023-02-01T05:01:23;4.70;99.90
7196;DHT22;3639;51.308;5.624;2023-02-01T05:03:50;4.70;99.90
7196;DHT22;3639;51.308;5.624;2023-02-01T05:06:15;4.60;99.90
7196;DHT22;3639;51.308;5.624;2023-02-01T05:08:41;4.60;99.90
7196;DHT22;3639;51.308;5.624;2023-02-01T05:11:07;4.60;99.90
7196;DHT22;3639;51.308;5.624;2023-02-01T05:13:52;4.60;99.90
7196;DHT22;3639;51.308;5.624;2023-02-01T05:16:18;4.60;99.90
7196;DHT22;3639;51.308;5.624;2023-02-01T05:18:44;4.60;99.90
7196;DHT22;3639;51.308;5.624;2023-02-01T05:21:09;4.50;99.90
7196;DHT22;3639;51.308;5.624;2023-02-01T05:23:35;4.50;99.90
7196;DHT22;3639;51.308;5.624;2023-02-01T05:26:21;4.50;99.90
7196;DHT22;3639;51.308;5.624;2023-02-01T05:28:46;4.50;99.90
7196;DHT22;3639;51.308;5.624;2023-02-01T05:31:12;4.50;99.90
7196;DHT22;3639;51.308;5.624;2023-02-01T05:33:37;4.50;99.90
7196;DHT22;3639;51.308;5.624;2023-02-01T05:36:03;4.50;99.90
7196;DHT22;3639;51.308;5.624;2023-02-01T05:38:29;4.50;99.90
7196;DHT22;3639;51.308;5.624;2023-02-01T05:40:57;4.50;99.90
7196;DHT22;3639;51.308;5.624;2023-02-01T05:43:23;4.40;99.90
7196;DHT22;3639;51.308;5.624;2023-02-01T05:45:49;4.40;99.90
7196;DHT22;3639;51.308;5.624;2023-02-01T05:48:14;4.40;99.90
7196;DHT22;3639;51.308;5.624;2023-02-01T05:50:40;4.50;99.90
7196;DHT22;3639;51.308;5.624;2023-02-01T05:53:06;4.50;99.90
7196;DHT22;3639;51.308;5.624;2023-02-01T05:55:32;4.50;99.90
7196;DHT22;3639;51.308;5.624;2023-02-01T05:57:57;4.50;99.90
7196;DHT22;3639;51.308;5.624;2023-02-01T06:00:23;4.60;99.90
7196;DHT22;3639;51.308;5.624;2023-02-01T06:02:49;4.60;99.90
7196;DHT22;3639;51.308;5.624;2023-02-01T06:05:14;4.70;99.90
7196;DHT22;3639;51.308;5.624;2023-02-01T06:07:40;4.70;99.90
7196;DHT22;3639;51.308;5.624;2023-02-01T06:10:06;4.80;99.90
7196;DHT22;3639;51.308;5.624;2023-02-01T06:12:32;4.80;99.90
7196;DHT22;3639;51.308;5.624;2023-02-01T06:14:57;4.80;99.90
7196;DHT22;3639;51.308;5.624;2023-02-01T06:17:24;4.80;99.90
7196;DHT22;3639;51.308;5.624;2023-02-01T06:19:50;4.90;99.90
7196;DHT22;3639;51.308;5.624;2023-02-01T06:22:15;5.00;99.90
7196;DHT22;3639;51.308;5.624;2023-02-01T06:24:41;5.00;99.90
7196;DHT22;3639;51.308;5.624;2023-02-01T06:27:07;5.00;99.90
7196;DHT22;3639;51.308;5.624;2023-02-01T06:29:35;5.00;99.90
7196;DHT22;3639;51.308;5.624;2023-02-01T06:32:01;5.00;99.90
7196;DHT22;3639;51.308;5.624;2023-02-01T06:34:27;5.10;99.90
7196;DHT22;3639;51.308;5.624;2023-02-01T06:36:52;5.10;99.90
7196;DHT22;3639;51.308;5.624;2023-02-01T06:39:20;5.10;99.90
7196;DHT22;3639;51.308;5.624;2023-02-01T06:41:47;5.10;99.90
7196;DHT22;3639;51.308;5.624;2023-02-01T06:44:13;5.10;99.90
7196;DHT22;3639;51.308;5.624;2023-02-01T06:46:38;5.20;99.90
7196;DHT22;3639;51.308;5.624;2023-02-01T06:49:04;5.20;99.90
7196;DHT22;3639;51.308;5.624;2023-02-01T06:51:30;5.20;99.90
7196;DHT22;3639;51.308;5.624;2023-02-01T06:53:56;5.20;99.90
7196;DHT22;3639;51.308;5.624;2023-02-01T06:56:22;5.20;99.90
7196;DHT22;3639;51.308;5.624;2023-02-01T06:58:48;5.20;99.90
7196;DHT22;3639;51.308;5.624;2023-02-01T07:01:15;5.10;99.90
7196;DHT22;3639;51.308;5.624;2023-02-01T07:03:41;5.10;99.90
7196;DHT22;3639;51.308;5.624;2023-02-01T07:06:07;5.10;99.90
7196;DHT22;3639;51.308;5.624;2023-02-01T07:08:36;5.10;99.90
7196;DHT22;3639;51.308;5.624;2023-02-01T07:11:06;5.10;99.90
7196;DHT22;3639;51.308;5.624;2023-02-01T07:13:33;5.00;99.90
7196;DHT22;3639;51.308;5.624;2023-02-01T07:16:00;5.10;99.90
7196;DHT22;3639;51.308;5.624;2023-02-01T07:18:27;5.10;99.90
7196;DHT22;3639;51.308;5.624;2023-02-01T07:20:54;5.10;99.90
7196;DHT22;3639;51.308;5.624;2023-02-01T07:23:20;5.10;99.90
7196;DHT22;3639;51.308;5.624;2023-02-01T07:25:47;5.00;99.90
7196;DHT22;3639;51.308;5.624;2023-02-01T07:28:12;5.00;99.90
7196;DHT22;3639;51.308;5.624;2023-02-01T07:30:38;5.00;99.90
7196;DHT22;3639;51.308;5.624;2023-02-01T07:33:04;4.90;99.90
7196;DHT22;3639;51.308;5.624;2023-02-01T07:35:30;4.90;99.90
7196;DHT22;3639;51.308;5.624;2023-02-01T07:37:57;4.80;99.90
7196;DHT22;3639;51.308;5.624;2023-02-01T07:40:23;4.80;99.90
7196;DHT22;3639;51.308;5.624;2023-02-01T07:42:54;4.80;99.90
7196;DHT22;3639;51.308;5.624;2023-02-01T07:45:21;4.80;99.90
7196;DHT22;3639;51.308;5.624;2023-02-01T07:47:47;4.80;99.90
7196;DHT22;3639;51.308;5.624;2023-02-01T07:50:13;4.80;99.90
7196;DHT22;3639;51.308;5.624;2023-02-01T07:52:38;4.80;99.90
7196;DHT22;3639;51.308;5.624;2023-02-01T07:55:06;4.80;99.90
7196;DHT22;3639;51.308;5.624;2023-02-01T07:57:31;4.70;99.90
7196;DHT22;3639;51.308;5.624;2023-02-01T07:59:57;4.70;99.90
7196;DHT22;3639;51.308;5.624;2023-02-01T08:02:41;4.70;99.90
7196;DHT22;3639;51.308;5.624;2023-02-01T08:05:07;4.80;99.90
7196;DHT22;3639;51.308;5.624;2023-02-01T08:07:33;4.90;99.90
7196;DHT22;3639;51.308;5.624;2023-02-01T08:09:59;4.80;99.90
7196;DHT22;3639;51.308;5.624;2023-02-01T08:12:25;4.90;99.90
7196;DHT22;3639;51.308;5.624;2023-02-01T08:14:52;4.90;99.90
7196;DHT22;3639;51.308;5.624;2023-02-01T08:17:19;5.00;99.90
7196;DHT22;3639;51.308;5.624;2023-02-01T08:19:45;5.00;99.90
7196;DHT22;3639;51.308;5.624;2023-02-01T08:22:10;5.00;99.90
7196;DHT22;3639;51.308;5.624;2023-02-01T08:24:36;5.00;99.90
7196;DHT22;3639;51.308;5.624;2023-02-01T08:27:05;5.00;99.90
7196;DHT22;3639;51.308;5.624;2023-02-01T08:29:31;5.10;99.90
7196;DHT22;3639;51.308;5.624;2023-02-01T08:31:56;5.10;99.90
7196;DHT22;3639;51.308;5.624;2023-02-01T08:34:22;5.20;99.90
7196;DHT22;3639;51.308;5.624;2023-02-01T08:36:48;5.20;99.90
7196;DHT22;3639;51.308;5.624;2023-02-01T08:39:14;5.20;99.90
7196;DHT22;3639;51.308;5.624;2023-02-01T08:41:40;5.20;99.90
7196;DHT22;3639;51.308;5.624;2023-02-01T08:44:07;5.20;99.90
7196;DHT22;3639;51.308;5.624;2023-02-01T08:46:33;5.30;99.90
7196;DHT22;3639;51.308;5.624;2023-02-01T08:48:59;5.30;99.90
7196;DHT22;3639;51.308;5.624;2023-02-01T08:51:25;5.40;99.90
7196;DHT22;3639;51.308;5.624;2023-02-01T08:53:51;5.50;99.90
7196;DHT22;3639;51.308;5.624;2023-02-01T08:56:18;5.40;99.90
7196;DHT22;3639;51.308;5.624;2023-02-01T08:58:44;5.50;99.90
7196;DHT22;3639;51.308;5.624;2023-02-01T09:01:12;5.60;99.90
7196;DHT22;3639;51.308;5.624;2023-02-01T09:03:38;5.70;99.90
7196;DHT22;3639;51.308;5.624;2023-02-01T09:06:06;5.70;99.90
7196;DHT22;3639;51.308;5.624;2023-02-01T09:08:34;5.80;99.90
7196;DHT22;3639;51.308;5.624;2023-02-01T09:11:06;5.90;99.90
7196;DHT22;3639;51.308;5.624;2023-02-01T09:13:32;5.90;99.90
7196;DHT22;3639;51.308;5.624;2023-02-01T09:15:59;5.90;99.90
7196;DHT22;3639;51.308;5.624;2023-02-01T09:18:25;5.90;99.90
7196;DHT22;3639;51.308;5.624;2023-02-01T09:20:51;5.90;99.90
7196;DHT22;3639;51.308;5.624;2023-02-01T09:23:16;5.90;99.90
7196;DHT22;3639;51.308;5.624;2023-02-01T09:25:43;6.00;99.90
7196;DHT22;3639;51.308;5.624;2023-02-01T09:28:08;5.90;99.90
7196;DHT22;3639;51.308;5.624;2023-02-01T09:30:35;6.00;99.90
7196;DHT22;3639;51.308;5.624;2023-02-01T09:33:01;6.00;99.90
7196;DHT22;3639;51.308;5.624;2023-02-01T09:35:27;6.10;99.90
7196;DHT22;3639;51.308;5.624;2023-02-01T09:37:53;6.10;99.90
7196;DHT22;3639;51.308;5.624;2023-02-01T09:40:19;6.20;99.90
7196;DHT22;3639;51.308;5.624;2023-02-01T09:43:35;6.20;99.90
7196;DHT22;3639;51.308;5.624;2023-02-01T09:48:38;6.30;99.90
7196;DHT22;3639;51.308;5.624;2023-02-01T09:51:19;6.30;99.90
7196;DHT22;3639;51.308;5.624;2023-02-01T09:53:53;6.30;99.90
7196;DHT22;3639;51.308;5.624;2023-02-01T09:56:36;6.30;99.90
7196;DHT22;3639;51.308;5.624;2023-02-01T10:02:02;6.70;99.90
7196;DHT22;3639;51.308;5.624;2023-02-01T10:04:28;6.80;99.90
7196;DHT22;3639;51.308;5.624;2023-02-01T10:07:30;6.80;99.90
7196;DHT22;3639;51.308;5.624;2023-02-01T10:11:02;6.90;99.90
7196;DHT22;3639;51.308;5.624;2023-02-01T10:22:06;7.20;99.90
7196;DHT22;3639;51.308;5.624;2023-02-01T10:24:41;7.20;99.90
7196;DHT22;3639;51.308;5.624;2023-02-01T10:27:22;7.30;99.90
7196;DHT22;3639;51.308;5.624;2023-02-01T10:29:57;7.30;99.90
7196;DHT22;3639;51.308;5.624;2023-02-01T10:32:29;7.40;99.90
7196;DHT22;3639;51.308;5.624;2023-02-01T10:37:41;7.50;99.90
7196;DHT22;3639;51.308;5.624;2023-02-01T10:40:18;7.60;99.90
7196;DHT22;3639;51.308;5.624;2023-02-01T10:42:47;7.60;99.90
7196;DHT22;3639;51.308;5.624;2023-02-01T10:45:19;7.70;99.90
7196;DHT22;3639;51.308;5.624;2023-02-01T10:47:50;7.80;99.90
7196;DHT22;3639;51.308;5.624;2023-02-01T10:50:18;7.80;99.90
7196;DHT22;3639;51.308;5.624;2023-02-01T10:52:52;7.90;99.90
7196;DHT22;3639;51.308;5.624;2023-02-01T10:55:32;8.00;99.90
7196;DHT22;3639;51.308;5.624;2023-02-01T10:58:01;8.00;99.90
7196;DHT22;3639;51.308;5.624;2023-02-01T11:00:56;8.10;99.90
7196;DHT22;3639;51.308;5.624;2023-02-01T11:05:59;8.20;99.90
7196;DHT22;3639;51.308;5.624;2023-02-01T11:08:25;8.30;99.90
7196;DHT22;3639;51.308;5.624;2023-02-01T11:11:02;8.40;99.90
7196;DHT22;3639;51.308;5.624;2023-02-01T11:13:30;8.50;99.90
7196;DHT22;3639;51.308;5.624;2023-02-01T11:15:57;8.60;99.90
7196;DHT22;3639;51.308;5.624;2023-02-01T11:18:31;8.70;99.90
7196;DHT22;3639;51.308;5.624;2023-02-01T11:20:58;8.80;99.90
7196;DHT22;3639;51.308;5.624;2023-02-01T11:23:26;8.80;99.90
7196;DHT22;3639;51.308;5.624;2023-02-01T11:25:55;8.90;99.90
7196;DHT22;3639;51.308;5.624;2023-02-01T11:28:26;8.80;99.90
7196;DHT22;3639;51.308;5.624;2023-02-01T11:30:56;8.80;99.90
7196;DHT22;3639;51.308;5.624;2023-02-01T11:33:26;8.70;99.90
7196;DHT22;3639;51.308;5.624;2023-02-01T11:35:56;8.70;99.90
7196;DHT22;3639;51.308;5.624;2023-02-01T11:38:31;8.70;99.90
7196;DHT22;3639;51.308;5.624;2023-02-01T11:41:24;8.70;99.90
7196;DHT22;3639;51.308;5.624;2023-02-01T11:43:53;8.70;99.90
7196;DHT22;3639;51.308;5.624;2023-02-01T11:46:23;8.60;99.90
7196;DHT22;3639;51.308;5.624;2023-02-01T11:48:51;8.50;99.90
7196;DHT22;3639;51.308;5.624;2023-02-01T11:54:55;8.40;99.90
7196;DHT22;3639;51.308;5.624;2023-02-01T12:05:55;8.30;99.90
7196;DHT22;3639;51.308;5.624;2023-02-01T12:16:43;8.40;99.90
7196;DHT22;3639;51.308;5.624;2023-02-01T12:25:15;8.40;99.90
7196;DHT22;3639;51.308;5.624;2023-02-01T12:28:03;8.40;99.90
7196;DHT22;3639;51.308;5.624;2023-02-01T12:33:23;8.40;99.90
7196;DHT22;3639;51.308;5.624;2023-02-01T12:36:18;8.40;99.90
7196;DHT22;3639;51.308;5.624;2023-02-01T12:39:37;8.40;99.90
7196;DHT22;3639;51.308;5.624;2023-02-01T12:41:47;8.40;99.90
7196;DHT22;3639;51.308;5.624;2023-02-01T12:47:14;8.30;99.90
7196;DHT22;3639;51.308;5.624;2023-02-01T12:49:59;8.40;99.90
7196;DHT22;3639;51.308;5.624;2023-02-01T12:52:52;8.40;99.90
7196;DHT22;3639;51.308;5.624;2023-02-01T12:55:36;8.40;99.90
7196;DHT22;3639;51.308;5.624;2023-02-01T12:58:06;8.40;99.90
7196;DHT22;3639;51.308;5.624;2023-02-01T13:00:41;8.40;99.90
7196;DHT22;3639;51.308;5.624;2023-02-01T13:06:03;8.40;99.90
7196;DHT22;3639;51.308;5.624;2023-02-01T13:08:45;8.50;99.90
7196;DHT22;3639;51.308;5.624;2023-02-01T13:11:37;8.50;99.90
7196;DHT22;3639;51.308;5.624;2023-02-01T13:14:11;8.50;99.90
7196;DHT22;3639;51.308;5.624;2023-02-01T13:16:45;8.50;99.90
7196;DHT22;3639;51.308;5.624;2023-02-01T13:19:22;8.60;99.90
7196;DHT22;3639;51.308;5.624;2023-02-01T13:21:55;8.60;99.90
7196;DHT22;3639;51.308;5.624;2023-02-01T13:26:53;8.70;99.90
7196;DHT22;3639;51.308;5.624;2023-02-01T13:29:20;8.70;99.90
7196;DHT22;3639;51.308;5.624;2023-02-01T13:32:08;8.70;99.90
7196;DHT22;3639;51.308;5.624;2023-02-01T13:42:35;8.90;99.90
7196;DHT22;3639;51.308;5.624;2023-02-01T13:45:14;8.90;99.90
7196;DHT22;3639;51.308;5.624;2023-02-01T13:47:43;8.90;99.90
7196;DHT22;3639;51.308;5.624;2023-02-01T13:52:52;8.90;99.90
7196;DHT22;3639;51.308;5.624;2023-02-01T13:57:49;8.90;99.90
7196;DHT22;3639;51.308;5.624;2023-02-01T14:00:37;8.90;99.90
7196;DHT22;3639;51.308;5.624;2023-02-01T14:13:39;8.80;99.90
7196;DHT22;3639;51.308;5.624;2023-02-01T14:21:28;8.80;99.90
7196;DHT22;3639;51.308;5.624;2023-02-01T14:24:04;8.80;99.90
7196;DHT22;3639;51.308;5.624;2023-02-01T14:26:48;8.80;99.90
7196;DHT22;3639;51.308;5.624;2023-02-01T14:29:37;8.80;99.90
7196;DHT22;3639;51.308;5.624;2023-02-01T14:32:18;8.80;99.90
7196;DHT22;3639;51.308;5.624;2023-02-01T14:39:50;8.60;99.90
7196;DHT22;3639;51.308;5.624;2023-02-01T14:44:45;8.60;99.90
7196;DHT22;3639;51.308;5.624;2023-02-01T14:52:47;8.70;99.90
7196;DHT22;3639;51.308;5.624;2023-02-01T14:55:21;8.60;99.90
7196;DHT22;3639;51.308;5.624;2023-02-01T14:57:50;8.60;99.90
7196;DHT22;3639;51.308;5.624;2023-02-01T15:00:21;8.60;99.90
7196;DHT22;3639;51.308;5.624;2023-02-01T15:02:48;8.50;99.90
7196;DHT22;3639;51.308;5.624;2023-02-01T15:05:44;8.50;99.90
7196;DHT22;3639;51.308;5.624;2023-02-01T15:08:19;8.50;99.90
7196;DHT22;3639;51.308;5.624;2023-02-01T15:10:48;8.50;99.90
7196;DHT22;3639;51.308;5.624;2023-02-01T15:13:24;8.50;99.90
7196;DHT22;3639;51.308;5.624;2023-02-01T15:16:05;8.50;99.90
7196;DHT22;3639;51.308;5.624;2023-02-01T15:18:32;8.40;99.90
7196;DHT22;3639;51.308;5.624;2023-02-01T15:21:02;8.40;99.90
7196;DHT22;3639;51.308;5.624;2023-02-01T15:23:29;8.40;99.90
7196;DHT22;3639;51.308;5.624;2023-02-01T15:25:55;8.40;99.90
7196;DHT22;3639;51.308;5.624;2023-02-01T15:28:21;8.40;99.90
7196;DHT22;3639;51.308;5.624;2023-02-01T15:31:00;8.40;99.90
7196;DHT22;3639;51.308;5.624;2023-02-01T15:33:27;8.40;99.90
7196;DHT22;3639;51.308;5.624;2023-02-01T15:36:07;8.40;99.90
7196;DHT22;3639;51.308;5.624;2023-02-01T15:38:43;8.40;99.90
7196;DHT22;3639;51.308;5.624;2023-02-01T15:41:20;8.40;99.90
7196;DHT22;3639;51.308;5.624;2023-02-01T15:46:33;8.40;99.90
7196;DHT22;3639;51.308;5.624;2023-02-01T15:49:03;8.40;99.90
7196;DHT22;3639;51.308;5.624;2023-02-01T15:51:31;8.30;99.90
7196;DHT22;3639;51.308;5.624;2023-02-01T15:54:03;8.30;99.90
7196;DHT22;3639;51.308;5.624;2023-02-01T15:56:35;8.40;99.90
7196;DHT22;3639;51.308;5.624;2023-02-01T15:59:12;8.40;99.90
7196;DHT22;3639;51.308;5.624;2023-02-01T16:01:38;8.30;99.90
7196;DHT22;3639;51.308;5.624;2023-02-01T16:04:26;8.30;99.90
7196;DHT22;3639;51.308;5.624;2023-02-01T16:06:53;8.30;99.90
7196;DHT22;3639;51.308;5.624;2023-02-01T16:09:21;8.30;99.90
7196;DHT22;3639;51.308;5.624;2023-02-01T16:12:00;8.30;99.90
7196;DHT22;3639;51.308;5.624;2023-02-01T16:14:26;8.20;99.90
7196;DHT22;3639;51.308;5.624;2023-02-01T16:16:54;8.20;99.90
7196;DHT22;3639;51.308;5.624;2023-02-01T16:19:21;8.20;99.90
7196;DHT22;3639;51.308;5.624;2023-02-01T16:21:49;8.20;99.90
7196;DHT22;3639;51.308;5.624;2023-02-01T16:24:15;8.10;99.90
7196;DHT22;3639;51.308;5.624;2023-02-01T16:26:40;8.20;99.90
7196;DHT22;3639;51.308;5.624;2023-02-01T16:29:06;8.20;99.90
7196;DHT22;3639;51.308;5.624;2023-02-01T16:31:36;8.20;99.90
7196;DHT22;3639;51.308;5.624;2023-02-01T16:34:02;8.20;99.90
7196;DHT22;3639;51.308;5.624;2023-02-01T16:36:28;8.20;99.90
7196;DHT22;3639;51.308;5.624;2023-02-01T16:38:54;8.20;99.90
7196;DHT22;3639;51.308;5.624;2023-02-01T16:41:23;8.20;99.90
7196;DHT22;3639;51.308;5.624;2023-02-01T16:43:54;8.20;99.90
7196;DHT22;3639;51.308;5.624;2023-02-01T16:46:22;8.20;99.90
7196;DHT22;3639;51.308;5.624;2023-02-01T16:48:55;8.30;99.90
7196;DHT22;3639;51.308;5.624;2023-02-01T16:51:21;8.20;99.90
7196;DHT22;3639;51.308;5.624;2023-02-01T16:53:48;8.30;99.90
7196;DHT22;3639;51.308;5.624;2023-02-01T16:56:33;8.20;99.90
7196;DHT22;3639;51.308;5.624;2023-02-01T16:58:59;8.20;99.90
7196;DHT22;3639;51.308;5.624;2023-02-01T17:01:25;8.20;99.90
7196;DHT22;3639;51.308;5.624;2023-02-01T17:03:51;8.30;99.90
7196;DHT22;3639;51.308;5.624;2023-02-01T17:06:22;8.20;99.90
7196;DHT22;3639;51.308;5.624;2023-02-01T17:08:56;8.20;99.90
7196;DHT22;3639;51.308;5.624;2023-02-01T17:11:26;8.20;99.90
7196;DHT22;3639;51.308;5.624;2023-02-01T17:13:52;8.20;99.90
7196;DHT22;3639;51.308;5.624;2023-02-01T17:19:02;8.20;99.90
7196;DHT22;3639;51.308;5.624;2023-02-01T17:21:31;8.20;99.90
7196;DHT22;3639;51.308;5.624;2023-02-01T17:23:59;8.20;99.90
7196;DHT22;3639;51.308;5.624;2023-02-01T17:26:26;8.20;99.90
7196;DHT22;3639;51.308;5.624;2023-02-01T17:28:51;8.20;99.90
7196;DHT22;3639;51.308;5.624;2023-02-01T17:31:17;8.20;99.90
7196;DHT22;3639;51.308;5.624;2023-02-01T17:33:43;8.20;99.90
7196;DHT22;3639;51.308;5.624;2023-02-01T17:36:14;8.20;99.90
7196;DHT22;3639;51.308;5.624;2023-02-01T17:38:40;8.10;99.90
7196;DHT22;3639;51.308;5.624;2023-02-01T17:41:09;8.20;99.90
7196;DHT22;3639;51.308;5.624;2023-02-01T17:43:35;8.10;99.90
7196;DHT22;3639;51.308;5.624;2023-02-01T17:48:38;8.10;99.90
7196;DHT22;3639;51.308;5.624;2023-02-01T17:51:05;8.10;99.90
7196;DHT22;3639;51.308;5.624;2023-02-01T17:53:34;8.10;99.90
7196;DHT22;3639;51.308;5.624;2023-02-01T17:56:00;8.00;99.90
7196;DHT22;3639;51.308;5.624;2023-02-01T17:58:26;8.00;99.90
7196;DHT22;3639;51.308;5.624;2023-02-01T18:00:54;8.00;99.90
7196;DHT22;3639;51.308;5.624;2023-02-01T18:03:24;8.10;99.90
7196;DHT22;3639;51.308;5.624;2023-02-01T18:05:51;8.10;99.90
7196;DHT22;3639;51.308;5.624;2023-02-01T18:08:19;8.10;99.90
7196;DHT22;3639;51.308;5.624;2023-02-01T18:10:51;8.10;99.90
7196;DHT22;3639;51.308;5.624;2023-02-01T18:13:17;8.10;99.90
7196;DHT22;3639;51.308;5.624;2023-02-01T18:15:43;8.10;99.90
7196;DHT22;3639;51.308;5.624;2023-02-01T18:18:08;8.20;99.90
7196;DHT22;3639;51.308;5.624;2023-02-01T18:20:34;8.20;99.90
7196;DHT22;3639;51.308;5.624;2023-02-01T18:23:00;8.20;99.90
7196;DHT22;3639;51.308;5.624;2023-02-01T18:25:28;8.20;99.90
7196;DHT22;3639;51.308;5.624;2023-02-01T18:28:03;8.20;99.90
7196;DHT22;3639;51.308;5.624;2023-02-01T18:30:31;8.20;99.90
7196;DHT22;3639;51.308;5.624;2023-02-01T18:32:57;8.20;99.90
7196;DHT22;3639;51.308;5.624;2023-02-01T18:35:28;8.20;99.90
7196;DHT22;3639;51.308;5.624;2023-02-01T18:37:55;8.20;99.90
7196;DHT22;3639;51.308;5.624;2023-02-01T18:40:35;8.20;99.90
7196;DHT22;3639;51.308;5.624;2023-02-01T18:43:02;8.20;99.90
7196;DHT22;3639;51.308;5.624;2023-02-01T18:45:39;8.30;99.90
7196;DHT22;3639;51.308;5.624;2023-02-01T18:48:07;8.30;99.90
7196;DHT22;3639;51.308;5.624;2023-02-01T18:50:38;8.20;99.90
7196;DHT22;3639;51.308;5.624;2023-02-01T18:53:06;8.30;99.90
7196;DHT22;3639;51.308;5.624;2023-02-01T18:55:32;8.30;99.90